sensor_id;sensor_type;location;lat;lon;timestamp;temperature;humidity
4596;DHT22;2310;49.978;8.742;2022-12-05T00:02:57;5.70;99.90
4596;DHT22;2310;49.978;8.742;2022-12-05T00:06:58;5.70;99.90
4596;DHT22;2310;49.978;8.742;2022-12-05T00:10:59;5.70;99.90
4596;DHT22;2310;49.978;8.742;2022-12-05T00:15:00;5.70;99.90
4596;DHT22;2310;49.978;8.742;2022-12-05T00:19:03;5.80;99.90
4596;DHT22;2310;49.978;8.742;2022-12-05T00:23:04;5.80;99.90
4596;DHT22;2310;49.978;8.742;2022-12-05T00:27:05;5.80;99.90
4596;DHT22;2310;49.978;8.742;2022-12-05T00:31:12;5.80;99.90
4596;DHT22;2310;49.978;8.742;2022-12-05T00:35:13;5.90;99.90
4596;DHT22;2310;49.978;8.742;2022-12-05T00:39:15;6.00;99.90
4596;DHT22;2310;49.978;8.742;2022-12-05T00:43:16;5.90;99.90
4596;DHT22;2310;49.978;8.742;2022-12-05T00:47:17;6.00;99.90
4596;DHT22;2310;49.978;8.742;2022-12-05T00:51:25;5.90;99.90
4596;DHT22;2310;49.978;8.742;2022-12-05T00:55:23;5.90;99.90
4596;DHT22;2310;49.978;8.742;2022-12-05T00:59:24;6.00;99.90
4596;DHT22;2310;49.978;8.742;2022-12-05T01:03:25;5.90;99.90
4596;DHT22;2310;49.978;8.742;2022-12-05T01:07:26;5.90;99.90
4596;DHT22;2310;49.978;8.742;2022-12-05T01:11:28;5.90;99.90
4596;DHT22;2310;49.978;8.742;2022-12-05T01:15:29;6.00;99.90
4596;DHT22;2310;49.978;8.742;2022-12-05T01:19:31;5.90;99.90
4596;DHT22;2310;49.978;8.742;2022-12-05T01:23:32;6.00;99.90
4596;DHT22;2310;49.978;8.742;2022-12-05T01:27:34;5.90;99.90
4596;DHT22;2310;49.978;8.742;2022-12-05T01:31:35;5.70;99.90
4596;DHT22;2310;49.978;8.742;2022-12-05T01:35:38;5.80;99.90
4596;DHT22;2310;49.978;8.742;2022-12-05T01:39:40;5.80;99.90
4596;DHT22;2310;49.978;8.742;2022-12-05T01:47:55;6.00;99.90
4596;DHT22;2310;49.978;8.742;2022-12-05T01:52:03;5.90;99.90
4596;DHT22;2310;49.978;8.742;2022-12-05T01:56:04;5.80;99.90
4596;DHT22;2310;49.978;8.742;2022-12-05T02:00:12;6.00;99.90
4596;DHT22;2310;49.978;8.742;2022-12-05T02:04:14;6.00;99.90
4596;DHT22;2310;49.978;8.742;2022-12-05T02:08:16;6.00;99.90
4596;DHT22;2310;49.978;8.742;2022-12-05T02:12:18;5.90;99.90
4596;DHT22;2310;49.978;8.742;2022-12-05T02:16:41;6.00;99.90
4596;DHT22;2310;49.978;8.742;2022-12-05T02:29:51;6.20;99.90
4596;DHT22;2310;49.978;8.742;2022-12-05T02:33:58;6.10;99.90
4596;DHT22;2310;49.978;8.742;2022-12-05T02:38:11;6.20;99.90
4596;DHT22;2310;49.978;8.742;2022-12-05T02:42:42;6.10;99.90
4596;DHT22;2310;49.978;8.742;2022-12-05T02:46:40;6.10;99.90
4596;DHT22;2310;49.978;8.742;2022-12-05T02:50:43;6.00;99.90
4596;DHT22;2310;49.978;8.742;2022-12-05T02:54:47;6.00;99.90
4596;DHT22;2310;49.978;8.742;2022-12-05T02:58:53;6.10;99.90
4596;DHT22;2310;49.978;8.742;2022-12-05T03:02:57;6.10;99.90
4596;DHT22;2310;49.978;8.742;2022-12-05T03:07:05;6.10;99.90
4596;DHT22;2310;49.978;8.742;2022-12-05T03:11:07;6.20;99.90
4596;DHT22;2310;49.978;8.742;2022-12-05T03:15:18;6.20;99.90
4596;DHT22;2310;49.978;8.742;2022-12-05T03:19:25;6.20;99.90
4596;DHT22;2310;49.978;8.742;2022-12-05T03:23:32;6.30;99.90
4596;DHT22;2310;49.978;8.742;2022-12-05T03:31:58;6.20;99.90
4596;DHT22;2310;49.978;8.742;2022-12-05T03:36:14;6.30;99.90
4596;DHT22;2310;49.978;8.742;2022-12-05T03:53:15;6.00;99.90
4596;DHT22;2310;49.978;8.742;2022-12-05T03:57:27;5.90;99.90
4596;DHT22;2310;49.978;8.742;2022-12-05T04:01:30;5.70;99.90
4596;DHT22;2310;49.978;8.742;2022-12-05T04:05:47;5.80;99.90
4596;DHT22;2310;49.978;8.742;2022-12-05T04:09:54;5.90;99.90
4596;DHT22;2310;49.978;8.742;2022-12-05T04:14:10;6.00;99.90
4596;DHT22;2310;49.978;8.742;2022-12-05T04:18:11;6.10;99.90
4596;DHT22;2310;49.978;8.742;2022-12-05T04:22:12;6.20;99.90
4596;DHT22;2310;49.978;8.742;2022-12-05T04:26:18;6.10;99.90
4596;DHT22;2310;49.978;8.742;2022-12-05T04:30:31;6.20;99.90
4596;DHT22;2310;49.978;8.742;2022-12-05T04:34:33;6.20;99.90
4596;DHT22;2310;49.978;8.742;2022-12-05T04:38:47;6.20;99.90
4596;DHT22;2310;49.978;8.742;2022-12-05T04:42:49;6.10;99.90
4596;DHT22;2310;49.978;8.742;2022-12-05T04:46:54;6.20;99.90
4596;DHT22;2310;49.978;8.742;2022-12-05T04:50:57;6.00;99.90
4596;DHT22;2310;49.978;8.742;2022-12-05T04:55:08;5.90;99.90
4596;DHT22;2310;49.978;8.742;2022-12-05T04:59:07;5.80;99.90
4596;DHT22;2310;49.978;8.742;2022-12-05T05:03:29;5.80;99.90
4596;DHT22;2310;49.978;8.742;2022-12-05T05:07:30;5.80;99.90
4596;DHT22;2310;49.978;8.742;2022-12-05T05:11:32;5.80;99.90
4596;DHT22;2310;49.978;8.742;2022-12-05T05:15:34;5.80;99.90
4596;DHT22;2310;49.978;8.742;2022-12-05T05:19:35;5.80;99.90
4596;DHT22;2310;49.978;8.742;2022-12-05T05:23:37;5.80;99.90
4596;DHT22;2310;49.978;8.742;2022-12-05T05:27:38;5.80;99.90
4596;DHT22;2310;49.978;8.742;2022-12-05T05:31:39;5.80;99.90
4596;DHT22;2310;49.978;8.742;2022-12-05T05:35:41;5.80;99.90
4596;DHT22;2310;49.978;8.742;2022-12-05T05:39:42;6.10;99.90
4596;DHT22;2310;49.978;8.742;2022-12-05T05:43:44;6.10;99.90
4596;DHT22;2310;49.978;8.742;2022-12-05T05:47:49;6.20;99.90
4596;DHT22;2310;49.978;8.742;2022-12-05T05:51:50;6.20;99.90
4596;DHT22;2310;49.978;8.742;2022-12-05T05:55:51;6.20;99.90
4596;DHT22;2310;49.978;8.742;2022-12-05T05:59:52;6.20;99.90
4596;DHT22;2310;49.978;8.742;2022-12-05T06:03:53;6.20;99.90
4596;DHT22;2310;49.978;8.742;2022-12-05T06:07:55;6.30;99.90
4596;DHT22;2310;49.978;8.742;2022-12-05T06:11:56;6.30;99.90
4596;DHT22;2310;49.978;8.742;2022-12-05T06:15:57;6.30;99.90
4596;DHT22;2310;49.978;8.742;2022-12-05T06:19:58;6.30;99.90
4596;DHT22;2310;49.978;8.742;2022-12-05T06:24:00;6.30;99.90
4596;DHT22;2310;49.978;8.742;2022-12-05T06:28:01;6.20;99.90
4596;DHT22;2310;49.978;8.742;2022-12-05T06:32:03;6.30;99.90
4596;DHT22;2310;49.978;8.742;2022-12-05T06:36:06;6.20;99.90
4596;DHT22;2310;49.978;8.742;2022-12-05T06:40:09;6.10;99.90
4596;DHT22;2310;49.978;8.742;2022-12-05T06:44:11;6.20;99.90
4596;DHT22;2310;49.978;8.742;2022-12-05T06:48:12;6.20;99.90
4596;DHT22;2310;49.978;8.742;2022-12-05T06:52:13;6.10;99.90
4596;DHT22;2310;49.978;8.742;2022-12-05T06:56:16;6.10;99.90
4596;DHT22;2310;49.978;8.742;2022-12-05T07:00:18;6.20;99.90
4596;DHT22;2310;49.978;8.742;2022-12-05T07:04:24;6.20;99.90
4596;DHT22;2310;49.978;8.742;2022-12-05T07:08:25;6.20;99.90
4596;DHT22;2310;49.978;8.742;2022-12-05T07:12:27;6.30;99.90
4596;DHT22;2310;49.978;8.742;2022-12-05T07:16:28;6.10;99.90
4596;DHT22;2310;49.978;8.742;2022-12-05T07:20:29;6.00;99.90
4596;DHT22;2310;49.978;8.742;2022-12-05T07:24:32;6.00;99.90
4596;DHT22;2310;49.978;8.742;2022-12-05T07:28:34;6.10;99.90
4596;DHT22;2310;49.978;8.742;2022-12-05T07:32:35;6.10;99.90
4596;DHT22;2310;49.978;8.742;2022-12-05T07:36:36;6.20;99.90
4596;DHT22;2310;49.978;8.742;2022-12-05T07:40:37;6.30;99.90
4596;DHT22;2310;49.978;8.742;2022-12-05T07:44:38;6.20;99.90
4596;DHT22;2310;49.978;8.742;2022-12-05T07:48:40;6.40;99.90
4596;DHT22;2310;49.978;8.742;2022-12-05T07:52:41;6.40;99.90
4596;DHT22;2310;49.978;8.742;2022-12-05T07:56:42;6.40;99.90
4596;DHT22;2310;49.978;8.742;2022-12-05T08:00:45;6.50;99.90
4596;DHT22;2310;49.978;8.742;2022-12-05T08:04:47;6.50;99.90
4596;DHT22;2310;49.978;8.742;2022-12-05T08:08:48;6.60;99.90
4596;DHT22;2310;49.978;8.742;2022-12-05T08:12:50;6.60;99.90
4596;DHT22;2310;49.978;8.742;2022-12-05T08:16:52;6.60;99.90
4596;DHT22;2310;49.978;8.742;2022-12-05T08:20:53;6.70;99.90
4596;DHT22;2310;49.978;8.742;2022-12-05T08:24:55;6.70;99.90
4596;DHT22;2310;49.978;8.742;2022-12-05T08:28:59;6.60;99.90
4596;DHT22;2310;49.978;8.742;2022-12-05T08:33:01;6.50;99.90
4596;DHT22;2310;49.978;8.742;2022-12-05T08:37:02;6.80;99.90
4596;DHT22;2310;49.978;8.742;2022-12-05T08:41:06;8.10;99.90
4596;DHT22;2310;49.978;8.742;2022-12-05T08:45:08;8.50;99.90
4596;DHT22;2310;49.978;8.742;2022-12-05T08:49:10;7.80;99.90
4596;DHT22;2310;49.978;8.742;2022-12-05T08:53:12;7.50;99.90
4596;DHT22;2310;49.978;8.742;2022-12-05T08:57:13;7.40;99.90
4596;DHT22;2310;49.978;8.742;2022-12-05T09:01:17;7.20;99.90
4596;DHT22;2310;49.978;8.742;2022-12-05T09:05:18;7.20;99.90
4596;DHT22;2310;49.978;8.742;2022-12-05T09:09:21;7.20;99.90
4596;DHT22;2310;49.978;8.742;2022-12-05T09:13:22;7.20;99.90
4596;DHT22;2310;49.978;8.742;2022-12-05T09:17:23;6.90;99.90
4596;DHT22;2310;49.978;8.742;2022-12-05T09:21:27;7.00;99.90
4596;DHT22;2310;49.978;8.742;2022-12-05T09:25:28;7.00;99.90
4596;DHT22;2310;49.978;8.742;2022-12-05T09:29:29;6.90;99.90
4596;DHT22;2310;49.978;8.742;2022-12-05T09:33:34;6.80;99.90
4596;DHT22;2310;49.978;8.742;2022-12-05T09:37:35;6.80;99.90
4596;DHT22;2310;49.978;8.742;2022-12-05T09:42:02;6.60;99.90
4596;DHT22;2310;49.978;8.742;2022-12-05T09:46:42;6.60;99.90
4596;DHT22;2310;49.978;8.742;2022-12-05T09:50:37;6.80;99.90
4596;DHT22;2310;49.978;8.742;2022-12-05T09:54:37;6.80;99.90
4596;DHT22;2310;49.978;8.742;2022-12-05T09:58:51;6.90;99.90
4596;DHT22;2310;49.978;8.742;2022-12-05T10:07:36;7.20;99.90
4596;DHT22;2310;49.978;8.742;2022-12-05T10:11:45;7.20;99.90
4596;DHT22;2310;49.978;8.742;2022-12-05T10:15:52;7.30;99.90
4596;DHT22;2310;49.978;8.742;2022-12-05T10:19:58;7.20;99.90
4596;DHT22;2310;49.978;8.742;2022-12-05T10:24:05;7.10;99.90
4596;DHT22;2310;49.978;8.742;2022-12-05T10:36:15;7.50;99.90
4596;DHT22;2310;49.978;8.742;2022-12-05T10:40:16;7.30;99.90
4596;DHT22;2310;49.978;8.742;2022-12-05T10:44:17;7.40;99.90
4596;DHT22;2310;49.978;8.742;2022-12-05T10:48:20;7.40;99.90
4596;DHT22;2310;49.978;8.742;2022-12-05T10:52:23;7.20;99.90
4596;DHT22;2310;49.978;8.742;2022-12-05T10:56:47;7.40;99.90
4596;DHT22;2310;49.978;8.742;2022-12-05T11:00:52;7.40;99.90
4596;DHT22;2310;49.978;8.742;2022-12-05T11:04:54;7.40;99.90
4596;DHT22;2310;49.978;8.742;2022-12-05T11:08:58;7.60;99.90
4596;DHT22;2310;49.978;8.742;2022-12-05T11:13:13;7.60;99.90
4596;DHT22;2310;49.978;8.742;2022-12-05T11:17:09;7.50;99.90
4596;DHT22;2310;49.978;8.742;2022-12-05T11:21:13;7.50;99.90
4596;DHT22;2310;49.978;8.742;2022-12-05T11:25:32;7.60;99.90
4596;DHT22;2310;49.978;8.742;2022-12-05T11:29:36;7.40;99.90
4596;DHT22;2310;49.978;8.742;2022-12-05T11:33:38;7.30;99.90
4596;DHT22;2310;49.978;8.742;2022-12-05T11:37:46;7.40;99.90
4596;DHT22;2310;49.978;8.742;2022-12-05T11:46:33;7.20;99.90
4596;DHT22;2310;49.978;8.742;2022-12-05T11:50:48;7.30;99.90
4596;DHT22;2310;49.978;8.742;2022-12-05T11:54:57;7.00;99.90
4596;DHT22;2310;49.978;8.742;2022-12-05T12:16:22;7.10;99.90
4596;DHT22;2310;49.978;8.742;2022-12-05T12:20:40;7.30;99.90
4596;DHT22;2310;49.978;8.742;2022-12-05T12:24:54;7.40;99.90
4596;DHT22;2310;49.978;8.742;2022-12-05T12:29:12;7.60;99.90
4596;DHT22;2310;49.978;8.742;2022-12-05T12:33:35;7.50;99.90
4596;DHT22;2310;49.978;8.742;2022-12-05T12:42:26;7.40;99.90
4596;DHT22;2310;49.978;8.742;2022-12-05T12:46:49;7.30;99.90
4596;DHT22;2310;49.978;8.742;2022-12-05T12:50:51;7.50;99.90
4596;DHT22;2310;49.978;8.742;2022-12-05T12:55:11;7.30;99.90
4596;DHT22;2310;49.978;8.742;2022-12-05T12:59:27;7.40;99.90
4596;DHT22;2310;49.978;8.742;2022-12-05T13:03:48;7.60;99.90
4596;DHT22;2310;49.978;8.742;2022-12-05T13:07:53;7.50;99.90
4596;DHT22;2310;49.978;8.742;2022-12-05T13:11:53;7.20;99.90
4596;DHT22;2310;49.978;8.742;2022-12-05T13:15:58;7.10;99.90
4596;DHT22;2310;49.978;8.742;2022-12-05T13:20:00;7.30;99.90
4596;DHT22;2310;49.978;8.742;2022-12-05T13:24:03;7.40;99.90
4596;DHT22;2310;49.978;8.742;2022-12-05T13:28:15;7.40;99.90
4596;DHT22;2310;49.978;8.742;2022-12-05T13:36:38;7.60;99.90
4596;DHT22;2310;49.978;8.742;2022-12-05T13:40:58;7.70;99.90
4596;DHT22;2310;49.978;8.742;2022-12-05T13:45:19;7.40;99.90
4596;DHT22;2310;49.978;8.742;2022-12-05T13:49:31;7.60;99.90
4596;DHT22;2310;49.978;8.742;2022-12-05T13:53:46;7.80;99.90
4596;DHT22;2310;49.978;8.742;2022-12-05T13:57:50;7.70;99.90
4596;DHT22;2310;49.978;8.742;2022-12-05T14:01:52;7.80;99.90
4596;DHT22;2310;49.978;8.742;2022-12-05T14:05:55;7.80;99.90
4596;DHT22;2310;49.978;8.742;2022-12-05T14:09:56;7.70;99.90
4596;DHT22;2310;49.978;8.742;2022-12-05T14:13:58;7.80;99.90
4596;DHT22;2310;49.978;8.742;2022-12-05T14:22:30;7.70;99.90
4596;DHT22;2310;49.978;8.742;2022-12-05T14:31:15;7.80;99.90
4596;DHT22;2310;49.978;8.742;2022-12-05T14:35:18;7.70;99.90
4596;DHT22;2310;49.978;8.742;2022-12-05T14:39:30;7.80;99.90
4596;DHT22;2310;49.978;8.742;2022-12-05T14:43:32;7.70;99.90
4596;DHT22;2310;49.978;8.742;2022-12-05T14:47:34;7.80;99.90
4596;DHT22;2310;49.978;8.742;2022-12-05T14:55:45;7.90;99.90
4596;DHT22;2310;49.978;8.742;2022-12-05T14:59:59;7.90;99.90
4596;DHT22;2310;49.978;8.742;2022-12-05T15:04:17;8.00;99.90
4596;DHT22;2310;49.978;8.742;2022-12-05T15:08:19;8.00;99.90
4596;DHT22;2310;49.978;8.742;2022-12-05T15:12:27;8.00;99.90
4596;DHT22;2310;49.978;8.742;2022-12-05T15:16:30;8.00;99.90
4596;DHT22;2310;49.978;8.742;2022-12-05T15:20:43;7.70;99.90
4596;DHT22;2310;49.978;8.742;2022-12-05T15:24:43;7.70;99.90
4596;DHT22;2310;49.978;8.742;2022-12-05T15:33:09;7.70;99.90
4596;DHT22;2310;49.978;8.742;2022-12-05T15:41:20;7.70;99.90
4596;DHT22;2310;49.978;8.742;2022-12-05T15:45:28;7.70;99.90
4596;DHT22;2310;49.978;8.742;2022-12-05T15:49:29;7.70;99.90
4596;DHT22;2310;49.978;8.742;2022-12-05T15:53:36;7.70;99.90
4596;DHT22;2310;49.978;8.742;2022-12-05T15:57:49;7.40;99.90
4596;DHT22;2310;49.978;8.742;2022-12-05T16:01:52;7.40;99.90
4596;DHT22;2310;49.978;8.742;2022-12-05T16:06:00;7.40;99.90
4596;DHT22;2310;49.978;8.742;2022-12-05T16:10:02;7.60;99.90
4596;DHT22;2310;49.978;8.742;2022-12-05T16:14:05;7.50;99.90
4596;DHT22;2310;49.978;8.742;2022-12-05T16:18:21;7.60;99.90
4596;DHT22;2310;49.978;8.742;2022-12-05T16:22:20;7.50;99.90
4596;DHT22;2310;49.978;8.742;2022-12-05T16:26:23;7.30;99.90
4596;DHT22;2310;49.978;8.742;2022-12-05T16:30:25;7.40;99.90
4596;DHT22;2310;49.978;8.742;2022-12-05T16:34:28;7.70;99.90
4596;DHT22;2310;49.978;8.742;2022-12-05T16:38:30;7.60;99.90
4596;DHT22;2310;49.978;8.742;2022-12-05T16:42:31;7.70;99.90
4596;DHT22;2310;49.978;8.742;2022-12-05T16:46:40;7.80;99.90
4596;DHT22;2310;49.978;8.742;2022-12-05T16:50:40;7.70;99.90
4596;DHT22;2310;49.978;8.742;2022-12-05T16:54:44;7.60;99.90
4596;DHT22;2310;49.978;8.742;2022-12-05T16:58:46;7.70;99.90
4596;DHT22;2310;49.978;8.742;2022-12-05T17:02:47;7.80;99.90
4596;DHT22;2310;49.978;8.742;2022-12-05T17:06:48;8.00;99.90
4596;DHT22;2310;49.978;8.742;2022-12-05T17:10:50;7.80;99.90
4596;DHT22;2310;49.978;8.742;2022-12-05T17:14:51;7.90;99.90
4596;DHT22;2310;49.978;8.742;2022-12-05T17:18:52;7.90;99.90
4596;DHT22;2310;49.978;8.742;2022-12-05T17:22:54;7.80;99.90
4596;DHT22;2310;49.978;8.742;2022-12-05T17:26:55;7.80;99.90
4596;DHT22;2310;49.978;8.742;2022-12-05T17:30:56;7.90;99.90
4596;DHT22;2310;49.978;8.742;2022-12-05T17:34:57;8.00;99.90
4596;DHT22;2310;49.978;8.742;2022-12-05T17:39:00;7.80;99.90
4596;DHT22;2310;49.978;8.742;2022-12-05T17:43:01;7.90;99.90
4596;DHT22;2310;49.978;8.742;2022-12-05T17:47:03;7.70;99.90
4596;DHT22;2310;49.978;8.742;2022-12-05T17:51:08;7.70;99.90
4596;DHT22;2310;49.978;8.742;2022-12-05T17:55:17;7.80;99.90
4596;DHT22;2310;49.978;8.742;2022-12-05T17:59:18;7.90;99.90
4596;DHT22;2310;49.978;8.742;2022-12-05T18:03:19;7.80;99.90
4596;DHT22;2310;49.978;8.742;2022-12-05T18:07:21;7.80;99.90
4596;DHT22;2310;49.978;8.742;2022-12-05T18:11:22;7.90;99.90
4596;DHT22;2310;49.978;8.742;2022-12-05T18:15:23;7.70;99.90
4596;DHT22;2310;49.978;8.742;2022-12-05T18:19:24;7.70;99.90
4596;DHT22;2310;49.978;8.742;2022-12-05T18:23:25;7.80;99.90
4596;DHT22;2310;49.978;8.742;2022-12-05T18:27:26;7.80;99.90
4596;DHT22;2310;49.978;8.742;2022-12-05T18:31:28;7.50;99.90
4596;DHT22;2310;49.978;8.742;2022-12-05T18:35:30;7.50;99.90
4596;DHT22;2310;49.978;8.742;2022-12-05T18:39:41;7.40;99.90
4596;DHT22;2310;49.978;8.742;2022-12-05T18:43:42;7.40;99.90
4596;DHT22;2310;49.978;8.742;2022-12-05T18:47:43;7.30;99.90
4596;DHT22;2310;49.978;8.742;2022-12-05T18:51:45;7.50;99.90
4596;DHT22;2310;49.978;8.742;2022-12-05T18:55:47;7.60;99.90
4596;DHT22;2310;49.978;8.742;2022-12-05T18:59:50;7.60;99.90
4596;DHT22;2310;49.978;8.742;2022-12-05T19:03:52;7.60;99.90
4596;DHT22;2310;49.978;8.742;2022-12-05T19:07:53;7.60;99.90
4596;DHT22;2310;49.978;8.742;2022-12-05T19:11:56;7.60;99.90
4596;DHT22;2310;49.978;8.742;2022-12-05T19:16:07;7.40;99.90
4596;DHT22;2310;49.978;8.742;2022-12-05T19:20:09;7.50;99.90
4596;DHT22;2310;49.978;8.742;2022-12-05T19:24:15;7.50;99.90
4596;DHT22;2310;49.978;8.742;2022-12-05T19:28:16;7.50;99.90
4596;DHT22;2310;49.978;8.742;2022-12-05T19:32:18;7.30;99.90
4596;DHT22;2310;49.978;8.742;2022-12-05T19:40:24;7.30;99.90
4596;DHT22;2310;49.978;8.742;2022-12-05T19:44:26;7.30;99.90
4596;DHT22;2310;49.978;8.742;2022-12-05T19:48:28;7.20;99.90
4596;DHT22;2310;49.978;8.742;2022-12-05T19:52:30;7.50;99.90
4596;DHT22;2310;49.978;8.742;2022-12-05T19:56:32;7.40;99.90
4596;DHT22;2310;49.978;8.742;2022-12-05T20:00:33;7.40;99.90
4596;DHT22;2310;49.978;8.742;2022-12-05T20:04:35;7.50;99.90
4596;DHT22;2310;49.978;8.742;2022-12-05T20:08:36;7.40;99.90
4596;DHT22;2310;49.978;8.742;2022-12-05T20:12:37;7.40;99.90
4596;DHT22;2310;49.978;8.742;2022-12-05T20:16:39;7.30;99.90
4596;DHT22;2310;49.978;8.742;2022-12-05T20:20:41;7.30;99.90
4596;DHT22;2310;49.978;8.742;2022-12-05T20:24:45;7.40;99.90
4596;DHT22;2310;49.978;8.742;2022-12-05T20:28:46;7.40;99.90
4596;DHT22;2310;49.978;8.742;2022-12-05T20:32:48;7.50;99.90
4596;DHT22;2310;49.978;8.742;2022-12-05T20:36:49;7.50;99.90
4596;DHT22;2310;49.978;8.742;2022-12-05T20:40:50;7.40;99.90
4596;DHT22;2310;49.978;8.742;2022-12-05T20:44:51;7.50;99.90
4596;DHT22;2310;49.978;8.742;2022-12-05T20:48:53;7.60;99.90
4596;DHT22;2310;49.978;8.742;2022-12-05T20:52:56;7.60;99.90
4596;DHT22;2310;49.978;8.742;2022-12-05T20:56:57;7.60;99.90
4596;DHT22;2310;49.978;8.742;2022-12-05T21:01:00;7.40;99.90
4596;DHT22;2310;49.978;8.742;2022-12-05T21:05:01;7.60;99.90
4596;DHT22;2310;49.978;8.742;2022-12-05T21:09:05;7.50;99.90
4596;DHT22;2310;49.978;8.742;2022-12-05T21:13:07;7.70;99.90
4596;DHT22;2310;49.978;8.742;2022-12-05T21:17:08;8.00;99.90
4596;DHT22;2310;49.978;8.742;2022-12-05T21:21:16;8.00;99.90
4596;DHT22;2310;49.978;8.742;2022-12-05T21:25:17;7.60;99.90
4596;DHT22;2310;49.978;8.742;2022-12-05T21:29:18;7.70;99.90
4596;DHT22;2310;49.978;8.742;2022-12-05T21:33:19;7.70;99.90
4596;DHT22;2310;49.978;8.742;2022-12-05T21:37:22;7.50;99.90
4596;DHT22;2310;49.978;8.742;2022-12-05T21:41:25;7.50;99.90
4596;DHT22;2310;49.978;8.742;2022-12-05T21:45:26;7.60;99.90
4596;DHT22;2310;49.978;8.742;2022-12-05T21:49:27;7.70;99.90
4596;DHT22;2310;49.978;8.742;2022-12-05T21:53:29;7.70;99.90
4596;DHT22;2310;49.978;8.742;2022-12-05T21:57:30;7.70;99.90
4596;DHT22;2310;49.978;8.742;2022-12-05T22:01:35;7.80;99.90
4596;DHT22;2310;49.978;8.742;2022-12-05T22:05:36;7.60;99.90
4596;DHT22;2310;49.978;8.742;2022-12-05T22:09:38;7.70;99.90
4596;DHT22;2310;49.978;8.742;2022-12-05T22:13:42;7.70;99.90
4596;DHT22;2310;49.978;8.742;2022-12-05T22:17:45;7.60;99.90
4596;DHT22;2310;49.978;8.742;2022-12-05T22:21:47;7.70;99.90
4596;DHT22;2310;49.978;8.742;2022-12-05T22:30:01;7.50;99.90
4596;DHT22;2310;49.978;8.742;2022-12-05T22:34:03;7.60;99.90
4596;DHT22;2310;49.978;8.742;2022-12-05T22:38:04;7.60;99.90
4596;DHT22;2310;49.978;8.742;2022-12-05T22:42:05;7.70;99.90
4596;DHT22;2310;49.978;8.742;2022-12-05T22:46:10;7.70;99.90
4596;DHT22;2310;49.978;8.742;2022-12-05T22:50:11;7.70;99.90
4596;DHT22;2310;49.978;8.742;2022-12-05T22:54:15;7.60;99.90
4596;DHT22;2310;49.978;8.742;2022-12-05T22:58:17;7.40;99.90
4596;DHT22;2310;49.978;8.742;2022-12-05T23:02:18;7.50;99.90
4596;DHT22;2310;49.978;8.742;2022-12-05T23:06:19;7.50;99.90
4596;DHT22;2310;49.978;8.742;2022-12-05T23:10:24;7.60;99.90
4596;DHT22;2310;49.978;8.742;2022-12-05T23:14:26;7.80;99.90
4596;DHT22;2310;49.978;8.742;2022-12-05T23:18:27;7.80;99.90
4596;DHT22;2310;49.978;8.742;2022-12-05T23:22:28;7.80;99.90
4596;DHT22;2310;49.978;8.742;2022-12-05T23:26:36;7.80;99.90
4596;DHT22;2310;49.978;8.742;2022-12-05T23:30:34;7.70;99.90
4596;DHT22;2310;49.978;8.742;2022-12-05T23:34:35;7.80;99.90
4596;DHT22;2310;49.978;8.742;2022-12-05T23:38:38;7.70;99.90
4596;DHT22;2310;49.978;8.742;2022-12-05T23:42:39;7.80;99.90
4596;DHT22;2310;49.978;8.742;2022-12-05T23:46:41;7.90;99.90
4596;DHT22;2310;49.978;8.742;2022-12-05T23:50:42;7.80;99.90
4596;DHT22;2310;49.978;8.742;2022-12-05T23:54:43;7.80;99.90
4596;DHT22;2310;49.978;8.742;2022-12-05T23:58:45;7.70;99.90
